MDG156 FMCH-FMNN
Flight info
| Callsign | MDG156 |
|---|---|
| Flight time | 0h 58m |
| Altitude | 39000 |
| Route | HAI UB790 SOAVI DCT NSB |
| Aircraft | B763/H-SDE3FGHIM3RWXY/LB1 |
Departure
| Time | 2026-04-20 21:35 |
|---|---|
| Airport | Prince Said Ibrahim International Airport (FMCH) |
Arrival
| Time | 2026-04-20 22:34 |
|---|---|
| Airport | Nosy Be-Fascene International Airport (FMNN) |
| Time | Latitude | Longitude | Altitude | Speed | Heading |
|---|---|---|---|---|---|
| 2026-04-20 20:58 | -11.53419 | 43.27446 | 117 ft | 0 kts | 272° |
| 2026-04-20 21:30 | -11.53435 | 43.27410 | 113 ft | 9 kts | 221° |
| 2026-04-20 21:30 | -11.53497 | 43.27390 | 110 ft | 9 kts | 191° |
| 2026-04-20 21:31 | -11.53548 | 43.27381 | 107 ft | 12 kts | 190° |
| 2026-04-20 21:31 | -11.53661 | 43.27354 | 102 ft | 9 kts | 216° |
| 2026-04-20 21:31 | -11.53680 | 43.27306 | 98 ft | 13 kts | 273° |
| 2026-04-20 21:31 | -11.53660 | 43.27154 | 92 ft | 18 kts | 250° |
| 2026-04-20 21:32 | -11.53734 | 43.27111 | 87 ft | 21 kts | 189° |
| 2026-04-20 21:32 | -11.53961 | 43.27077 | 77 ft | 27 kts | 188° |
| 2026-04-20 21:32 | -11.54161 | 43.27044 | 71 ft | 30 kts | 189° |
| 2026-04-20 21:32 | -11.54296 | 43.27020 | 71 ft | 28 kts | 189° |
| 2026-04-20 21:33 | -11.54443 | 43.26994 | 73 ft | 19 kts | 189° |
| 2026-04-20 21:33 | -11.54569 | 43.26998 | 76 ft | 13 kts | 161° |
| 2026-04-20 21:33 | -11.54641 | 43.26979 | 77 ft | 8 kts | 252° |
| 2026-04-20 21:33 | -11.54604 | 43.26965 | 77 ft | 5 kts | 11° |
| 2026-04-20 21:34 | -11.54603 | 43.26965 | 77 ft | 0 kts | 11° |
| 2026-04-20 21:34 | -11.54602 | 43.26965 | 77 ft | 1 kts | 11° |
| 2026-04-20 21:34 | -11.54236 | 43.27031 | 71 ft | 83 kts | 11° |
| 2026-04-20 21:35 | -11.53464 | 43.27169 | 99 ft | 138 kts | 10° |
| 2026-04-20 21:35 | -11.52777 | 43.27286 | 185 ft | 162 kts | 12° |
| 2026-04-20 21:35 | -11.51575 | 43.27443 | 620 ft | 182 kts | 8° |
| 2026-04-20 21:35 | -11.49850 | 43.27310 | 1529 ft | 199 kts | 350° |
| 2026-04-20 21:36 | -11.48896 | 43.27076 | 1787 ft | 221 kts | 349° |
| 2026-04-20 21:36 | -11.47299 | 43.26694 | 2229 ft | 252 kts | 350° |
| 2026-04-20 21:36 | -11.44958 | 43.26131 | 3504 ft | 264 kts | 350° |
| 2026-04-20 21:36 | -11.43175 | 43.25654 | 4451 ft | 276 kts | 341° |
| 2026-04-20 21:37 | -11.42041 | 43.24991 | 5080 ft | 287 kts | 322° |
| 2026-04-20 21:37 | -11.40838 | 43.23383 | 6070 ft | 298 kts | 294° |
| 2026-04-20 21:37 | -11.40523 | 43.20606 | 7427 ft | 305 kts | 257° |
| 2026-04-20 21:37 | -11.41356 | 43.18675 | 8454 ft | 304 kts | 230° |
| 2026-04-20 21:38 | -11.42932 | 43.17291 | 9428 ft | 301 kts | 202° |
| 2026-04-20 21:38 | -11.44931 | 43.16748 | 10354 ft | 301 kts | 179° |
| 2026-04-20 21:38 | -11.47084 | 43.17005 | 10655 ft | 327 kts | 160° |
| 2026-04-20 21:38 | -11.49229 | 43.18038 | 10950 ft | 354 kts | 143° |
| 2026-04-20 21:39 | -11.51093 | 43.19777 | 11375 ft | 378 kts | 127° |
| 2026-04-20 21:39 | -11.52455 | 43.22066 | 12448 ft | 382 kts | 117° |
| 2026-04-20 21:39 | -11.53377 | 43.23618 | 13088 ft | 388 kts | 123° |
| 2026-04-20 21:39 | -11.55427 | 43.26647 | 14386 ft | 395 kts | 122° |
| 2026-04-20 21:40 | -11.56927 | 43.28989 | 15348 ft | 399 kts | 122° |
| 2026-04-20 21:40 | -11.57955 | 43.30601 | 15950 ft | 403 kts | 122° |
| 2026-04-20 21:40 | -11.59983 | 43.33799 | 17095 ft | 408 kts | 122° |
| 2026-04-20 21:40 | -11.61525 | 43.36245 | 17862 ft | 414 kts | 122° |
| 2026-04-20 21:41 | -11.63087 | 43.38721 | 18608 ft | 420 kts | 122° |
| 2026-04-20 21:41 | -11.64672 | 43.41237 | 19398 ft | 423 kts | 122° |
| 2026-04-20 21:41 | -11.66256 | 43.43753 | 20040 ft | 429 kts | 122° |
| 2026-04-20 21:41 | -11.67884 | 43.46339 | 20755 ft | 433 kts | 122° |
| 2026-04-20 21:42 | -11.69517 | 43.48936 | 21383 ft | 438 kts | 122° |
| 2026-04-20 21:42 | -11.71158 | 43.51545 | 21942 ft | 444 kts | 122° |
| 2026-04-20 21:42 | -11.72823 | 43.54194 | 22597 ft | 447 kts | 123° |
| 2026-04-20 21:42 | -11.73953 | 43.55993 | 22962 ft | 451 kts | 123° |
| 2026-04-20 21:43 | -11.76209 | 43.59584 | 23759 ft | 456 kts | 123° |
| 2026-04-20 21:43 | -11.77919 | 43.62307 | 24344 ft | 459 kts | 123° |
| 2026-04-20 21:43 | -11.79655 | 43.65071 | 24943 ft | 462 kts | 123° |
| 2026-04-20 21:43 | -11.81399 | 43.67850 | 25527 ft | 465 kts | 123° |
| 2026-04-20 21:44 | -11.83138 | 43.70620 | 26047 ft | 469 kts | 123° |
| 2026-04-20 21:44 | -11.84910 | 43.73444 | 26547 ft | 474 kts | 124° |
| 2026-04-20 21:44 | -11.86696 | 43.76291 | 27142 ft | 475 kts | 124° |
| 2026-04-20 21:44 | -11.88465 | 43.79113 | 27669 ft | 478 kts | 124° |
| 2026-04-20 21:45 | -11.90258 | 43.81974 | 28411 ft | 475 kts | 124° |
| 2026-04-20 21:45 | -11.92023 | 43.84791 | 29050 ft | 475 kts | 124° |
| 2026-04-20 21:45 | -11.93212 | 43.86689 | 29511 ft | 473 kts | 124° |
| 2026-04-20 21:45 | -11.95553 | 43.90429 | 30661 ft | 464 kts | 125° |
| 2026-04-20 21:46 | -11.97273 | 43.93177 | 31339 ft | 462 kts | 125° |
| 2026-04-20 21:46 | -11.98992 | 43.95923 | 31979 ft | 459 kts | 125° |
| 2026-04-20 21:46 | -12.00698 | 43.98651 | 32608 ft | 457 kts | 125° |
| 2026-04-20 21:46 | -12.02415 | 44.01395 | 33259 ft | 455 kts | 125° |
| 2026-04-20 21:47 | -12.04124 | 44.04127 | 33818 ft | 455 kts | 125° |
| 2026-04-20 21:47 | -12.05805 | 44.06816 | 34346 ft | 455 kts | 125° |
| 2026-04-20 21:47 | -12.06945 | 44.08640 | 34681 ft | 455 kts | 125° |
| 2026-04-20 21:47 | -12.09202 | 44.12252 | 35370 ft | 455 kts | 125° |
| 2026-04-20 21:48 | -12.10910 | 44.14987 | 35861 ft | 455 kts | 125° |
| 2026-04-20 21:48 | -12.12620 | 44.17725 | 36295 ft | 456 kts | 125° |
| 2026-04-20 21:48 | -12.14309 | 44.20431 | 36756 ft | 456 kts | 125° |
| 2026-04-20 21:48 | -12.16033 | 44.23193 | 37185 ft | 457 kts | 125° |
| 2026-04-20 21:49 | -12.17727 | 44.25909 | 37548 ft | 458 kts | 125° |
| 2026-04-20 21:49 | -12.19444 | 44.28662 | 37978 ft | 458 kts | 125° |
| 2026-04-20 21:49 | -12.21154 | 44.31405 | 38368 ft | 459 kts | 125° |
| 2026-04-20 21:49 | -12.22879 | 44.34170 | 38690 ft | 460 kts | 125° |
| 2026-04-20 21:50 | -12.24584 | 44.36906 | 38970 ft | 458 kts | 125° |
| 2026-04-20 21:50 | -12.27979 | 44.42358 | 38962 ft | 454 kts | 125° |
| 2026-04-20 21:51 | -12.31401 | 44.47853 | 38958 ft | 460 kts | 125° |
| 2026-04-20 21:51 | -12.34801 | 44.53319 | 38953 ft | 458 kts | 125° |
| 2026-04-20 21:52 | -12.38229 | 44.58832 | 38946 ft | 457 kts | 125° |
| 2026-04-20 21:52 | -12.41633 | 44.64309 | 38941 ft | 458 kts | 125° |
| 2026-04-20 21:53 | -12.45044 | 44.69802 | 38929 ft | 457 kts | 125° |
| 2026-04-20 21:53 | -12.48440 | 44.75273 | 38926 ft | 456 kts | 125° |
| 2026-04-20 21:54 | -12.51827 | 44.80733 | 38926 ft | 455 kts | 125° |
| 2026-04-20 21:54 | -12.55222 | 44.86207 | 38927 ft | 457 kts | 125° |
| 2026-04-20 21:55 | -12.58611 | 44.91676 | 38927 ft | 458 kts | 126° |
| 2026-04-20 21:55 | -12.62027 | 44.97194 | 38926 ft | 456 kts | 125° |
| 2026-04-20 21:56 | -12.65420 | 45.02676 | 38925 ft | 457 kts | 126° |
| 2026-04-20 21:56 | -12.68808 | 45.08152 | 38922 ft | 458 kts | 125° |
| 2026-04-20 21:57 | -12.72208 | 45.13654 | 38920 ft | 455 kts | 126° |
| 2026-04-20 21:57 | -12.75590 | 45.19127 | 38928 ft | 455 kts | 126° |
| 2026-04-20 21:58 | -12.78984 | 45.24623 | 38921 ft | 456 kts | 126° |
| 2026-04-20 21:58 | -12.82662 | 45.29859 | 38950 ft | 454 kts | 134° |
| 2026-04-20 21:59 | -12.86807 | 45.34796 | 38924 ft | 454 kts | 134° |
| 2026-04-20 21:59 | -12.90897 | 45.39656 | 38916 ft | 453 kts | 134° |
| 2026-04-20 22:00 | -12.95022 | 45.44551 | 38903 ft | 453 kts | 134° |
| 2026-04-20 22:00 | -12.99139 | 45.49437 | 38905 ft | 454 kts | 134° |
| 2026-04-20 22:01 | -13.03260 | 45.54329 | 38903 ft | 455 kts | 134° |
| 2026-04-20 22:01 | -13.07416 | 45.59265 | 38900 ft | 457 kts | 134° |
| 2026-04-20 22:02 | -13.11550 | 45.64177 | 38910 ft | 456 kts | 134° |
| 2026-04-20 22:02 | -13.15701 | 45.69114 | 38904 ft | 455 kts | 133° |
| 2026-04-20 22:03 | -13.19140 | 45.73205 | 38904 ft | 454 kts | 133° |
| 2026-04-20 22:03 | -13.23945 | 45.78924 | 38906 ft | 455 kts | 133° |
| 2026-04-20 22:04 | -13.28066 | 45.83832 | 38905 ft | 456 kts | 133° |
| 2026-04-20 22:04 | -13.32225 | 45.88788 | 38901 ft | 456 kts | 133° |
| 2026-04-20 22:05 | -13.36353 | 45.93711 | 38910 ft | 458 kts | 133° |
| 2026-04-20 22:05 | -13.40497 | 45.98655 | 38908 ft | 458 kts | 133° |
| 2026-04-20 22:06 | -13.44640 | 46.03601 | 38920 ft | 456 kts | 133° |
| 2026-04-20 22:06 | -13.48768 | 46.08532 | 38916 ft | 455 kts | 133° |
| 2026-04-20 22:07 | -13.52907 | 46.13479 | 38915 ft | 456 kts | 133° |
| 2026-04-20 22:07 | -13.56440 | 46.18880 | 38931 ft | 462 kts | 117° |
| 2026-04-20 22:08 | -13.58146 | 46.25264 | 38927 ft | 470 kts | 98° |
| 2026-04-20 22:08 | -13.58234 | 46.28618 | 38755 ft | 478 kts | 90° |
| 2026-04-20 22:08 | -13.57879 | 46.32055 | 38045 ft | 485 kts | 85° |
| 2026-04-20 22:08 | -13.57431 | 46.35430 | 37395 ft | 482 kts | 85° |
| 2026-04-20 22:09 | -13.56987 | 46.38832 | 36737 ft | 479 kts | 85° |
| 2026-04-20 22:09 | -13.56541 | 46.42209 | 36091 ft | 476 kts | 86° |
| 2026-04-20 22:09 | -13.56096 | 46.45575 | 35451 ft | 473 kts | 86° |
| 2026-04-20 22:09 | -13.55658 | 46.48866 | 34831 ft | 470 kts | 86° |
| 2026-04-20 22:10 | -13.55363 | 46.51089 | 34413 ft | 468 kts | 86° |
| 2026-04-20 22:10 | -13.54778 | 46.55492 | 33596 ft | 470 kts | 86° |
| 2026-04-20 22:10 | -13.54330 | 46.58856 | 32977 ft | 474 kts | 87° |
| 2026-04-20 22:10 | -13.53885 | 46.62186 | 32406 ft | 477 kts | 86° |
| 2026-04-20 22:11 | -13.53435 | 46.65563 | 31846 ft | 479 kts | 86° |
| 2026-04-20 22:11 | -13.52981 | 46.68956 | 31280 ft | 479 kts | 86° |
| 2026-04-20 22:11 | -13.52680 | 46.71201 | 30901 ft | 479 kts | 86° |
| 2026-04-20 22:11 | -13.52076 | 46.75704 | 30139 ft | 478 kts | 85° |
| 2026-04-20 22:12 | -13.51619 | 46.79106 | 29557 ft | 479 kts | 85° |
| 2026-04-20 22:12 | -13.51164 | 46.82486 | 28969 ft | 480 kts | 85° |
| 2026-04-20 22:12 | -13.50714 | 46.85839 | 28368 ft | 480 kts | 85° |
| 2026-04-20 22:12 | -13.50256 | 46.89233 | 27748 ft | 477 kts | 85° |
| 2026-04-20 22:13 | -13.49809 | 46.92543 | 27134 ft | 470 kts | 85° |
| 2026-04-20 22:13 | -13.49363 | 46.95841 | 26537 ft | 464 kts | 85° |
| 2026-04-20 22:13 | -13.48920 | 46.99120 | 25945 ft | 459 kts | 85° |
| 2026-04-20 22:13 | -13.48485 | 47.02341 | 25366 ft | 457 kts | 85° |
| 2026-04-20 22:14 | -13.48194 | 47.04494 | 24979 ft | 455 kts | 85° |
| 2026-04-20 22:14 | -13.47620 | 47.08734 | 24218 ft | 448 kts | 84° |
| 2026-04-20 22:14 | -13.47195 | 47.11869 | 23655 ft | 445 kts | 84° |
| 2026-04-20 22:14 | -13.46767 | 47.15015 | 23093 ft | 441 kts | 84° |
| 2026-04-20 22:15 | -13.46345 | 47.18116 | 22540 ft | 437 kts | 84° |
| 2026-04-20 22:15 | -13.45932 | 47.21150 | 22010 ft | 433 kts | 84° |
| 2026-04-20 22:15 | -13.45517 | 47.24209 | 21477 ft | 429 kts | 84° |
| 2026-04-20 22:15 | -13.45104 | 47.27228 | 20949 ft | 423 kts | 84° |
| 2026-04-20 22:16 | -13.44702 | 47.30186 | 20430 ft | 421 kts | 84° |
| 2026-04-20 22:16 | -13.44297 | 47.33144 | 19911 ft | 415 kts | 84° |
| 2026-04-20 22:16 | -13.43902 | 47.36039 | 19399 ft | 412 kts | 84° |
| 2026-04-20 22:16 | -13.43506 | 47.38937 | 18888 ft | 409 kts | 84° |
| 2026-04-20 22:17 | -13.43113 | 47.41803 | 18381 ft | 403 kts | 84° |
| 2026-04-20 22:17 | -13.42728 | 47.44619 | 17876 ft | 400 kts | 84° |
| 2026-04-20 22:17 | -13.42343 | 47.47420 | 17373 ft | 393 kts | 83° |
| 2026-04-20 22:17 | -13.41962 | 47.50207 | 16895 ft | 393 kts | 83° |
| 2026-04-20 22:18 | -13.41584 | 47.52961 | 16408 ft | 388 kts | 84° |
| 2026-04-20 22:18 | -13.41209 | 47.55683 | 15925 ft | 385 kts | 83° |
| 2026-04-20 22:18 | -13.40837 | 47.58395 | 15442 ft | 382 kts | 83° |
| 2026-04-20 22:18 | -13.40471 | 47.61052 | 14961 ft | 379 kts | 83° |
| 2026-04-20 22:19 | -13.40102 | 47.63730 | 14474 ft | 378 kts | 83° |
| 2026-04-20 22:19 | -13.39735 | 47.66397 | 13985 ft | 374 kts | 83° |
| 2026-04-20 22:19 | -13.39491 | 47.68164 | 13665 ft | 375 kts | 83° |
| 2026-04-20 22:19 | -13.39008 | 47.71661 | 13017 ft | 369 kts | 83° |
| 2026-04-20 22:20 | -13.38652 | 47.74236 | 12544 ft | 367 kts | 82° |
| 2026-04-20 22:20 | -13.38295 | 47.76817 | 12067 ft | 363 kts | 82° |
| 2026-04-20 22:20 | -13.37937 | 47.79402 | 11580 ft | 361 kts | 83° |
| 2026-04-20 22:20 | -13.37586 | 47.81935 | 11102 ft | 359 kts | 83° |
| 2026-04-20 22:21 | -13.37240 | 47.84428 | 10640 ft | 355 kts | 83° |
| 2026-04-20 22:21 | -13.36893 | 47.86936 | 10189 ft | 353 kts | 82° |
| 2026-04-20 22:21 | -13.36555 | 47.89370 | 9733 ft | 347 kts | 83° |
| 2026-04-20 22:21 | -13.36217 | 47.91799 | 9324 ft | 339 kts | 83° |
| 2026-04-20 22:22 | -13.35886 | 47.94183 | 8971 ft | 331 kts | 83° |
| 2026-04-20 22:22 | -13.35564 | 47.96494 | 8671 ft | 322 kts | 83° |
| 2026-04-20 22:22 | -13.35254 | 47.98720 | 8414 ft | 313 kts | 83° |
| 2026-04-20 22:22 | -13.34951 | 48.00897 | 8184 ft | 305 kts | 82° |
| 2026-04-20 22:23 | -13.34654 | 48.03031 | 7980 ft | 296 kts | 83° |
| 2026-04-20 22:23 | -13.34369 | 48.05076 | 7795 ft | 287 kts | 82° |
| 2026-04-20 22:23 | -13.34089 | 48.07081 | 7625 ft | 279 kts | 83° |
| 2026-04-20 22:23 | -13.33818 | 48.09021 | 7474 ft | 271 kts | 83° |
| 2026-04-20 22:24 | -13.33554 | 48.10911 | 7339 ft | 265 kts | 83° |
| 2026-04-20 22:24 | -13.33292 | 48.12790 | 7224 ft | 263 kts | 83° |
| 2026-04-20 22:24 | -13.33035 | 48.14628 | 7115 ft | 262 kts | 83° |
| 2026-04-20 22:24 | -13.32773 | 48.16498 | 7009 ft | 263 kts | 83° |
| 2026-04-20 22:25 | -13.32603 | 48.17717 | 6937 ft | 262 kts | 83° |
| 2026-04-20 22:25 | -13.32255 | 48.20200 | 6756 ft | 261 kts | 83° |
| 2026-04-20 22:25 | -13.31998 | 48.22037 | 6550 ft | 261 kts | 83° |
| 2026-04-20 22:25 | -13.31742 | 48.23863 | 6286 ft | 260 kts | 83° |
| 2026-04-20 22:26 | -13.31485 | 48.25693 | 5998 ft | 259 kts | 83° |
| 2026-04-20 22:26 | -13.31226 | 48.27539 | 5616 ft | 262 kts | 83° |
| 2026-04-20 22:26 | -13.30968 | 48.29379 | 5442 ft | 256 kts | 83° |
| 2026-04-20 22:27 | -13.30319 | 48.32781 | 5432 ft | 237 kts | 69° |
| 2026-04-20 22:27 | -13.29658 | 48.34353 | 5164 ft | 241 kts | 68° |
| 2026-04-20 22:27 | -13.28994 | 48.35947 | 4811 ft | 245 kts | 68° |
| 2026-04-20 22:27 | -13.28299 | 48.37549 | 4456 ft | 248 kts | 67° |
| 2026-04-20 22:28 | -13.27574 | 48.39144 | 4076 ft | 244 kts | 67° |
| 2026-04-20 22:28 | -13.26868 | 48.40689 | 3949 ft | 233 kts | 66° |
| 2026-04-20 22:28 | -13.26187 | 48.42181 | 3768 ft | 233 kts | 67° |
| 2026-04-20 22:28 | -13.25498 | 48.43682 | 3519 ft | 231 kts | 66° |
| 2026-04-20 22:29 | -13.24813 | 48.45174 | 3277 ft | 229 kts | 65° |
| 2026-04-20 22:29 | -13.23804 | 48.46423 | 3023 ft | 232 kts | 37° |
| 2026-04-20 22:29 | -13.22289 | 48.46947 | 2789 ft | 232 kts | 4° |
| 2026-04-20 22:29 | -13.20741 | 48.46558 | 2557 ft | 232 kts | 331° |
| 2026-04-20 22:30 | -13.19581 | 48.45411 | 2322 ft | 231 kts | 303° |
| 2026-04-20 22:30 | -13.19054 | 48.43884 | 2094 ft | 229 kts | 278° |
| 2026-04-20 22:30 | -13.19227 | 48.42303 | 1992 ft | 220 kts | 248° |
| 2026-04-20 22:30 | -13.20119 | 48.41065 | 2010 ft | 215 kts | 219° |
| 2026-04-20 22:31 | -13.21292 | 48.40076 | 2012 ft | 221 kts | 218° |
| 2026-04-20 22:31 | -13.22477 | 48.39075 | 1995 ft | 219 kts | 218° |
| 2026-04-20 22:31 | -13.23650 | 48.38071 | 1782 ft | 215 kts | 218° |
| 2026-04-20 22:31 | -13.24758 | 48.37119 | 1439 ft | 201 kts | 217° |
| 2026-04-20 22:32 | -13.25475 | 48.36550 | 1185 ft | 194 kts | 216° |
| 2026-04-20 22:32 | -13.26828 | 48.35491 | 794 ft | 170 kts | 216° |
| 2026-04-20 22:32 | -13.27692 | 48.34773 | 608 ft | 152 kts | 218° |
| 2026-04-20 22:32 | -13.28473 | 48.34066 | 382 ft | 146 kts | 222° |
| 2026-04-20 22:33 | -13.29216 | 48.33365 | 241 ft | 143 kts | 221° |
| 2026-04-20 22:33 | -13.29977 | 48.32654 | 190 ft | 150 kts | 221° |
| 2026-04-20 22:33 | -13.30731 | 48.31919 | 85 ft | 152 kts | 219° |
| 2026-04-20 22:33 | -13.31488 | 48.31224 | 46 ft | 109 kts | 223° |
| 2026-04-20 22:34 | -13.31752 | 48.30969 | 46 ft | 16 kts | 220° |
| 2026-04-20 22:34 | -13.31794 | 48.30949 | 46 ft | 0 kts | 185° |
| 2026-04-20 22:34 | -13.31807 | 48.30951 | 46 ft | 4 kts | 168° |
| 2026-04-20 22:34 | -13.31831 | 48.30964 | 46 ft | 4 kts | 148° |
| 2026-04-20 22:35 | -13.31838 | 48.30992 | 46 ft | 5 kts | 68° |
| 2026-04-20 22:35 | -13.31817 | 48.31026 | 46 ft | 4 kts | 72° |
| 2026-04-20 22:35 | -13.31829 | 48.31056 | 46 ft | 0 kts | 138° |